<?xml version="1.0" encoding="UTF-8" standalone="no" ?>
<gpx xmlns="http://www.topografix.com/GPX/1/1" xmlns:xsi="http://www.w3.org/2001/XMLSchema-instance" xsi:schemaLocation="http://www.topografix.com/GPX/1/1 http://www.topografix.com/GPX/1/1/gpx.xsd" version="1.1" creator="VisuGPX - https://www.visugpx.com">
  <metadata>
    <name>St saufflieu</name>
  </metadata>
  <trk>
    <name><![CDATA[St saufflieu_1]]></name>
    <trkseg>
      <trkpt lat="49.7856" lon="2.24983">
        <ele>124.3</ele>
        <time>2024-06-19T07:09:53Z</time>
      </trkpt>
      <trkpt lat="49.7856" lon="2.24982">
        <ele>124.3</ele>
        <time>2024-06-19T07:09:54Z</time>
      </trkpt>
      <trkpt lat="49.7856" lon="2.24981">
        <ele>124.3</ele>
        <time>2024-06-19T07:09:55Z</time>
      </trkpt>
      <trkpt lat="49.7856" lon="2.24979">
        <ele>124.3</ele>
        <time>2024-06-19T07:09:56Z</time>
      </trkpt>
      <trkpt lat="49.7856" lon="2.24977">
        <ele>124.3</ele>
        <time>2024-06-19T07:09:57Z</time>
      </trkpt>
      <trkpt lat="49.78559" lon="2.24976">
        <ele>124.3</ele>
        <time>2024-06-19T07:09:58Z</time>
      </trkpt>
      <trkpt lat="49.7856" lon="2.24973">
        <ele>124.4</ele>
        <time>2024-06-19T07:09:59Z</time>
      </trkpt>
      <trkpt lat="49.7856" lon="2.24971">
        <ele>124.4</ele>
        <time>2024-06-19T07:10:00Z</time>
      </trkpt>
      <trkpt lat="49.7856" lon="2.24969">
        <ele>124.4</ele>
        <time>2024-06-19T07:10:01Z</time>
      </trkpt>
      <trkpt lat="49.7856" lon="2.24966">
        <ele>124.4</ele>
        <time>2024-06-19T07:10:02Z</time>
      </trkpt>
      <trkpt lat="49.78561" lon="2.24963">
        <ele>124.5</ele>
        <time>2024-06-19T07:10:03Z</time>
      </trkpt>
      <trkpt lat="49.7856" lon="2.24961">
        <ele>124.5</ele>
        <time>2024-06-19T07:10:04Z</time>
      </trkpt>
      <trkpt lat="49.7856" lon="2.24959">
        <ele>124.5</ele>
        <time>2024-06-19T07:10:05Z</time>
      </trkpt>
      <trkpt lat="49.7856" lon="2.24957">
        <ele>124.5</ele>
        <time>2024-06-19T07:10:06Z</time>
      </trkpt>
      <trkpt lat="49.7856" lon="2.24955">
        <ele>124.5</ele>
        <time>2024-06-19T07:10:07Z</time>
      </trkpt>
      <trkpt lat="49.78559" lon="2.24953">
        <ele>124.5</ele>
        <time>2024-06-19T07:10:08Z</time>
      </trkpt>
      <trkpt lat="49.78559" lon="2.24951">
        <ele>124.5</ele>
        <time>2024-06-19T07:10:09Z</time>
      </trkpt>
      <trkpt lat="49.78559" lon="2.2495">
        <ele>124.5</ele>
        <time>2024-06-19T07:10:10Z</time>
      </trkpt>
      <trkpt lat="49.78558" lon="2.24949">
        <ele>124.5</ele>
        <time>2024-06-19T07:10:11Z</time>
      </trkpt>
      <trkpt lat="49.78558" lon="2.24948">
        <ele>124.5</ele>
        <time>2024-06-19T07:10:12Z</time>
      </trkpt>
      <trkpt lat="49.78558" lon="2.24946">
        <ele>124.5</ele>
        <time>2024-06-19T07:10:13Z</time>
      </trkpt>
      <trkpt lat="49.78556" lon="2.2493">
        <ele>124.6</ele>
        <time>2024-06-19T07:10:14Z</time>
      </trkpt>
      <trkpt lat="49.78553" lon="2.24915">
        <ele>124.7</ele>
        <time>2024-06-19T07:10:15Z</time>
      </trkpt>
      <trkpt lat="49.78551" lon="2.24901">
        <ele>124.8</ele>
        <time>2024-06-19T07:10:16Z</time>
      </trkpt>
      <trkpt lat="49.78548" lon="2.24886">
        <ele>124.9</ele>
        <time>2024-06-19T07:11:09Z</time>
      </trkpt>
      <trkpt lat="49.78545" lon="2.24871">
        <ele>125</ele>
        <time>2024-06-19T07:11:10Z</time>
      </trkpt>
      <trkpt lat="49.78543" lon="2.24856">
        <ele>125.1</ele>
        <time>2024-06-19T07:11:11Z</time>
      </trkpt>
      <trkpt lat="49.7854" lon="2.24842">
        <ele>125.1</ele>
        <time>2024-06-19T07:11:12Z</time>
      </trkpt>
      <trkpt lat="49.7854" lon="2.24839">
        <ele>125.2</ele>
        <time>2024-06-19T07:11:14Z</time>
      </trkpt>
      <trkpt lat="49.7854" lon="2.24837">
        <ele>125.2</ele>
        <time>2024-06-19T07:11:15Z</time>
      </trkpt>
      <trkpt lat="49.78539" lon="2.24825">
        <ele>125.2</ele>
        <time>2024-06-19T07:47:26Z</time>
      </trkpt>
      <trkpt lat="49.76682" lon="2.23747">
        <ele>138.8</ele>
        <time>2024-06-19T07:47:37Z</time>
      </trkpt>
      <trkpt lat="49.76672" lon="2.23747">
        <ele>138.9</ele>
        <time>2024-06-19T07:47:38Z</time>
      </trkpt>
      <trkpt lat="49.76673" lon="2.23754">
        <ele>138.9</ele>
        <time>2024-06-19T07:47:39Z</time>
      </trkpt>
      <trkpt lat="49.76673" lon="2.2376">
        <ele>138.9</ele>
        <time>2024-06-19T07:47:40Z</time>
      </trkpt>
      <trkpt lat="49.76674" lon="2.23766">
        <ele>139</ele>
        <time>2024-06-19T07:47:41Z</time>
      </trkpt>
      <trkpt lat="49.76665" lon="2.23741">
        <ele>139.1</ele>
        <time>2024-06-19T07:47:42Z</time>
      </trkpt>
      <trkpt lat="49.76664" lon="2.23737">
        <ele>139.1</ele>
        <time>2024-06-19T07:47:43Z</time>
      </trkpt>
      <trkpt lat="49.76663" lon="2.23735">
        <ele>139.2</ele>
        <time>2024-06-19T07:47:44Z</time>
      </trkpt>
      <trkpt lat="49.76663" lon="2.23735">
        <ele>139.2</ele>
        <time>2024-06-19T07:47:45Z</time>
      </trkpt>
      <trkpt lat="49.76663" lon="2.23735">
        <ele>139.2</ele>
        <time>2024-06-19T07:47:46Z</time>
      </trkpt>
      <trkpt lat="49.76663" lon="2.23734">
        <ele>139.2</ele>
        <time>2024-06-19T07:47:48Z</time>
      </trkpt>
      <trkpt lat="49.76663" lon="2.23734">
        <ele>139.2</ele>
        <time>2024-06-19T07:47:49Z</time>
      </trkpt>
      <trkpt lat="49.76663" lon="2.23734">
        <ele>139.2</ele>
        <time>2024-06-19T07:47:50Z</time>
      </trkpt>
      <trkpt lat="49.76663" lon="2.23733">
        <ele>139.2</ele>
        <time>2024-06-19T07:47:51Z</time>
      </trkpt>
      <trkpt lat="49.76663" lon="2.23733">
        <ele>139.2</ele>
        <time>2024-06-19T07:47:52Z</time>
      </trkpt>
      <trkpt lat="49.76663" lon="2.23733">
        <ele>139.2</ele>
        <time>2024-06-19T07:47:53Z</time>
      </trkpt>
      <trkpt lat="49.76663" lon="2.23732">
        <ele>139.2</ele>
        <time>2024-06-19T07:47:54Z</time>
      </trkpt>
      <trkpt lat="49.76663" lon="2.23732">
        <ele>139.2</ele>
        <time>2024-06-19T07:47:55Z</time>
      </trkpt>
      <trkpt lat="49.76663" lon="2.23732">
        <ele>139.2</ele>
        <time>2024-06-19T07:47:57Z</time>
      </trkpt>
      <trkpt lat="49.76663" lon="2.23731">
        <ele>139.2</ele>
        <time>2024-06-19T07:47:58Z</time>
      </trkpt>
      <trkpt lat="49.76663" lon="2.23731">
        <ele>139.2</ele>
        <time>2024-06-19T07:47:59Z</time>
      </trkpt>
      <trkpt lat="49.76663" lon="2.23731">
        <ele>139.2</ele>
        <time>2024-06-19T07:48:00Z</time>
      </trkpt>
      <trkpt lat="49.76663" lon="2.2373">
        <ele>139.2</ele>
        <time>2024-06-19T07:48:01Z</time>
      </trkpt>
      <trkpt lat="49.76663" lon="2.2373">
        <ele>139.2</ele>
        <time>2024-06-19T07:48:02Z</time>
      </trkpt>
      <trkpt lat="49.76663" lon="2.2373">
        <ele>139.2</ele>
        <time>2024-06-19T07:48:03Z</time>
      </trkpt>
      <trkpt lat="49.76662" lon="2.23729">
        <ele>139.2</ele>
        <time>2024-06-19T07:48:04Z</time>
      </trkpt>
      <trkpt lat="49.76662" lon="2.23729">
        <ele>139.1</ele>
        <time>2024-06-19T07:48:05Z</time>
      </trkpt>
      <trkpt lat="49.76662" lon="2.23729">
        <ele>139.1</ele>
        <time>2024-06-19T07:48:06Z</time>
      </trkpt>
      <trkpt lat="49.76662" lon="2.23728">
        <ele>139.1</ele>
        <time>2024-06-19T07:49:47Z</time>
      </trkpt>
      <trkpt lat="49.76662" lon="2.23728">
        <ele>139.1</ele>
        <time>2024-06-19T07:49:48Z</time>
      </trkpt>
      <trkpt lat="49.76662" lon="2.23728">
        <ele>139.1</ele>
        <time>2024-06-19T07:49:49Z</time>
      </trkpt>
      <trkpt lat="49.76662" lon="2.23725">
        <ele>139.1</ele>
        <time>2024-06-19T07:49:51Z</time>
      </trkpt>
      <trkpt lat="49.76662" lon="2.23723">
        <ele>139.1</ele>
        <time>2024-06-19T07:49:52Z</time>
      </trkpt>
      <trkpt lat="49.76664" lon="2.23713">
        <ele>139.1</ele>
        <time>2024-06-19T08:43:36Z</time>
      </trkpt>
      <trkpt lat="49.78119" lon="2.23182">
        <ele>110.6</ele>
        <time>2024-06-19T08:43:41Z</time>
      </trkpt>
      <trkpt lat="49.78121" lon="2.23193">
        <ele>110.4</ele>
        <time>2024-06-19T08:43:42Z</time>
      </trkpt>
      <trkpt lat="49.78122" lon="2.23195">
        <ele>110.3</ele>
        <time>2024-06-19T08:43:43Z</time>
      </trkpt>
      <trkpt lat="49.78122" lon="2.23198">
        <ele>110.3</ele>
        <time>2024-06-19T08:43:44Z</time>
      </trkpt>
      <trkpt lat="49.78123" lon="2.232">
        <ele>110.2</ele>
        <time>2024-06-19T08:43:45Z</time>
      </trkpt>
      <trkpt lat="49.78124" lon="2.23202">
        <ele>110.2</ele>
        <time>2024-06-19T08:43:46Z</time>
      </trkpt>
      <trkpt lat="49.78124" lon="2.23204">
        <ele>110.1</ele>
        <time>2024-06-19T08:43:47Z</time>
      </trkpt>
      <trkpt lat="49.78125" lon="2.23207">
        <ele>110.1</ele>
        <time>2024-06-19T08:43:48Z</time>
      </trkpt>
      <trkpt lat="49.78125" lon="2.23209">
        <ele>110</ele>
        <time>2024-06-19T08:43:49Z</time>
      </trkpt>
      <trkpt lat="49.78126" lon="2.23212">
        <ele>110</ele>
        <time>2024-06-19T08:43:50Z</time>
      </trkpt>
      <trkpt lat="49.78126" lon="2.23213">
        <ele>109.9</ele>
        <time>2024-06-19T08:43:51Z</time>
      </trkpt>
      <trkpt lat="49.78126" lon="2.23215">
        <ele>109.9</ele>
        <time>2024-06-19T08:43:52Z</time>
      </trkpt>
      <trkpt lat="49.78127" lon="2.23217">
        <ele>109.9</ele>
        <time>2024-06-19T08:43:53Z</time>
      </trkpt>
      <trkpt lat="49.78127" lon="2.23218">
        <ele>109.8</ele>
        <time>2024-06-19T08:43:55Z</time>
      </trkpt>
      <trkpt lat="49.78127" lon="2.23218">
        <ele>109.8</ele>
        <time>2024-06-19T08:43:56Z</time>
      </trkpt>
      <trkpt lat="49.78126" lon="2.23217">
        <ele>109.8</ele>
        <time>2024-06-19T08:43:57Z</time>
      </trkpt>
      <trkpt lat="49.78126" lon="2.23216">
        <ele>109.8</ele>
        <time>2024-06-19T08:43:58Z</time>
      </trkpt>
      <trkpt lat="49.78126" lon="2.23215">
        <ele>109.8</ele>
        <time>2024-06-19T08:43:59Z</time>
      </trkpt>
      <trkpt lat="49.78127" lon="2.23215">
        <ele>109.7</ele>
        <time>2024-06-19T08:44:00Z</time>
      </trkpt>
      <trkpt lat="49.78127" lon="2.23216">
        <ele>109.7</ele>
        <time>2024-06-19T08:44:01Z</time>
      </trkpt>
      <trkpt lat="49.78128" lon="2.23217">
        <ele>109.7</ele>
        <time>2024-06-19T08:44:02Z</time>
      </trkpt>
      <trkpt lat="49.78128" lon="2.23218">
        <ele>109.7</ele>
        <time>2024-06-19T08:44:03Z</time>
      </trkpt>
      <trkpt lat="49.78127" lon="2.23218">
        <ele>109.7</ele>
        <time>2024-06-19T08:44:04Z</time>
      </trkpt>
      <trkpt lat="49.78125" lon="2.23219">
        <ele>109.6</ele>
        <time>2024-06-19T08:44:05Z</time>
      </trkpt>
      <trkpt lat="49.78125" lon="2.2322">
        <ele>109.6</ele>
        <time>2024-06-19T08:44:06Z</time>
      </trkpt>
      <trkpt lat="49.78125" lon="2.23222">
        <ele>109.5</ele>
        <time>2024-06-19T08:44:07Z</time>
      </trkpt>
      <trkpt lat="49.78125" lon="2.23224">
        <ele>109.5</ele>
        <time>2024-06-19T08:44:08Z</time>
      </trkpt>
      <trkpt lat="49.78126" lon="2.23227">
        <ele>109.4</ele>
        <time>2024-06-19T08:44:09Z</time>
      </trkpt>
      <trkpt lat="49.78126" lon="2.23228">
        <ele>109.4</ele>
        <time>2024-06-19T08:44:10Z</time>
      </trkpt>
      <trkpt lat="49.78126" lon="2.2323">
        <ele>109.4</ele>
        <time>2024-06-19T08:44:11Z</time>
      </trkpt>
      <trkpt lat="49.78127" lon="2.23233">
        <ele>109.3</ele>
        <time>2024-06-19T08:44:13Z</time>
      </trkpt>
      <trkpt lat="49.78127" lon="2.23234">
        <ele>109.3</ele>
        <time>2024-06-19T08:44:14Z</time>
      </trkpt>
      <trkpt lat="49.78127" lon="2.23235">
        <ele>109.2</ele>
        <time>2024-06-19T08:44:15Z</time>
      </trkpt>
      <trkpt lat="49.78128" lon="2.23237">
        <ele>109.2</ele>
        <time>2024-06-19T08:44:16Z</time>
      </trkpt>
      <trkpt lat="49.78128" lon="2.23239">
        <ele>109.2</ele>
        <time>2024-06-19T08:44:17Z</time>
      </trkpt>
      <trkpt lat="49.78932" lon="2.24982">
        <ele>121.2</ele>
        <time>2024-06-19T09:24:56Z</time>
      </trkpt>
      <trkpt lat="49.78934" lon="2.2499">
        <ele>121.2</ele>
        <time>2024-06-19T09:24:58Z</time>
      </trkpt>
      <trkpt lat="49.78933" lon="2.24991">
        <ele>121.2</ele>
        <time>2024-06-19T09:24:59Z</time>
      </trkpt>
      <trkpt lat="49.78933" lon="2.24991">
        <ele>121.2</ele>
        <time>2024-06-19T09:25:00Z</time>
      </trkpt>
      <trkpt lat="49.78933" lon="2.24991">
        <ele>121.2</ele>
        <time>2024-06-19T09:25:01Z</time>
      </trkpt>
      <trkpt lat="49.79028" lon="2.25286">
        <ele>117.2</ele>
        <time>2024-06-19T09:39:55Z</time>
      </trkpt>
      <trkpt lat="49.79022" lon="2.25299">
        <ele>117.1</ele>
        <time>2024-06-19T09:39:56Z</time>
      </trkpt>
      <trkpt lat="49.79027" lon="2.25299">
        <ele>117.1</ele>
        <time>2024-06-19T09:39:57Z</time>
      </trkpt>
    </trkseg>
  </trk>
</gpx>